createdAt,value
2023-05-28T00:00:00.430Z,5.37
2023-05-28T00:02:34.713Z,5.50
2023-05-28T00:05:05.782Z,5.40
2023-05-28T00:07:32.140Z,5.43
2023-05-28T00:09:59.233Z,5.90
2023-05-28T00:12:25.859Z,5.20
2023-05-28T00:14:52.882Z,6.37
2023-05-28T00:17:19.592Z,5.93
2023-05-28T00:19:45.963Z,5.80
2023-05-28T00:22:12.915Z,5.90
2023-05-28T00:24:39.439Z,5.90
2023-05-28T00:27:07.083Z,6.07
2023-05-28T00:29:33.491Z,6.23
2023-05-28T00:31:59.996Z,5.90
2023-05-28T00:34:26.937Z,6.07
2023-05-28T00:36:54.515Z,6.00
2023-05-28T00:39:21.873Z,6.23
2023-05-28T00:41:48.336Z,6.23
2023-05-28T00:44:14.720Z,6.17
2023-05-28T00:46:43.186Z,6.30
2023-05-28T00:49:13.363Z,6.17
2023-05-28T00:51:40.882Z,6.67
2023-05-28T00:54:07.424Z,6.27
2023-05-28T00:56:34.009Z,6.20
2023-05-28T00:59:03.355Z,6.07
2023-05-28T01:01:30.485Z,6.70
2023-05-28T01:03:57.390Z,5.70
2023-05-28T01:06:24.104Z,5.80
2023-05-28T01:08:51.585Z,5.57
2023-05-28T01:11:20.056Z,5.97
2023-05-28T01:13:47.689Z,5.17
2023-05-28T01:16:14.521Z,5.50
2023-05-28T01:18:42.770Z,5.30
2023-05-28T01:21:10.394Z,5.57
2023-05-28T01:23:44.478Z,5.20
2023-05-28T01:26:15.396Z,5.37
2023-05-28T01:28:49.593Z,5.07
2023-05-28T01:31:17.239Z,5.40
2023-05-28T01:33:44.665Z,5.30
2023-05-28T01:36:22.799Z,4.80
2023-05-28T01:38:50.816Z,4.63
2023-05-28T01:41:17.571Z,4.67
2023-05-28T01:43:46.017Z,5.37
2023-05-28T01:46:13.411Z,5.30
2023-05-28T01:48:40.874Z,5.50
2023-05-28T01:51:07.517Z,4.67
2023-05-28T01:53:33.933Z,5.50
2023-05-28T01:56:00.320Z,5.03
2023-05-28T01:58:27.021Z,5.07
2023-05-28T02:01:06.232Z,5.40
2023-05-28T02:03:32.756Z,4.67
2023-05-28T02:05:59.141Z,4.73
2023-05-28T02:08:26.087Z,4.80
2023-05-28T02:10:53.155Z,5.47
2023-05-28T02:13:19.585Z,4.83
2023-05-28T02:15:46.160Z,5.17
2023-05-28T02:18:12.640Z,5.27
2023-05-28T02:20:39.111Z,5.63
2023-05-28T02:23:05.597Z,5.70
2023-05-28T02:25:31.939Z,5.37
2023-05-28T02:27:59.272Z,5.27
2023-05-28T02:30:25.745Z,4.80
2023-05-28T02:32:52.139Z,5.17
2023-05-28T02:35:20.898Z,5.37
2023-05-28T02:37:47.244Z,5.23
2023-05-28T02:40:14.379Z,5.13
2023-05-28T02:42:41.032Z,5.63
2023-05-28T02:45:07.781Z,5.70
2023-05-28T02:47:34.384Z,5.30
2023-05-28T02:50:01.278Z,5.10
2023-05-28T02:52:27.666Z,4.53
2023-05-28T02:54:54.038Z,5.67
2023-05-28T02:57:21.676Z,5.37
2023-05-28T02:59:49.172Z,5.53
2023-05-28T03:02:15.741Z,5.60
2023-05-28T03:04:42.194Z,6.03
2023-05-28T03:07:08.619Z,5.80
2023-05-28T03:09:37.524Z,5.87
2023-05-28T03:12:04.190Z,5.90
2023-05-28T03:14:30.594Z,5.90
2023-05-28T03:16:56.945Z,5.10
2023-05-28T03:19:23.465Z,5.03
2023-05-28T03:21:49.817Z,5.27
2023-05-28T03:24:16.424Z,5.40
2023-05-28T03:26:42.837Z,5.33
2023-05-28T03:29:09.747Z,5.53
2023-05-28T03:31:45.520Z,5.50
2023-05-28T03:34:12.337Z,5.00
2023-05-28T03:36:41.483Z,5.83
2023-05-28T03:39:09.399Z,5.83
2023-05-28T03:41:36.676Z,5.27
2023-05-28T03:44:03.160Z,5.37
2023-05-28T03:46:29.632Z,5.73
2023-05-28T03:48:56.478Z,5.23
2023-05-28T03:51:24.720Z,5.40
2023-05-28T03:53:51.944Z,5.43
2023-05-28T03:56:20.464Z,5.77
2023-05-28T03:58:47.285Z,5.53
2023-05-28T04:01:13.971Z,5.97
2023-05-28T04:03:40.551Z,5.30
2023-05-28T04:06:07.982Z,5.30
2023-05-28T04:08:34.424Z,6.10
2023-05-28T04:11:00.774Z,5.50
2023-05-28T04:13:27.363Z,5.33
2023-05-28T04:15:54.015Z,5.20
2023-05-28T04:18:20.547Z,5.67
2023-05-28T04:20:47.098Z,5.70
2023-05-28T04:23:13.621Z,5.27
2023-05-28T04:25:40.060Z,5.50
2023-05-28T04:28:06.630Z,6.60
2023-05-28T04:30:33.093Z,5.70
2023-05-28T04:32:59.600Z,5.73
2023-05-28T04:35:27.128Z,6.03
2023-05-28T04:37:54.267Z,5.50
2023-05-28T04:40:22.161Z,5.70
2023-05-28T04:42:48.570Z,5.97
2023-05-28T04:45:15.444Z,5.70
2023-05-28T04:47:41.949Z,5.73
2023-05-28T04:50:08.756Z,5.43
2023-05-28T04:52:36.699Z,5.43
2023-05-28T04:55:06.947Z,5.13
2023-05-28T04:57:33.666Z,5.20
2023-05-28T05:00:00.504Z,5.80
2023-05-28T05:02:26.866Z,5.80
2023-05-28T05:04:53.300Z,6.57
2023-05-28T05:07:19.825Z,5.87
2023-05-28T05:09:46.173Z,5.70
2023-05-28T05:12:12.726Z,5.43
2023-05-28T05:14:39.124Z,6.47
2023-05-28T05:17:07.707Z,5.83
2023-05-28T05:19:34.055Z,5.23
2023-05-28T05:22:02.740Z,5.60
2023-05-28T05:24:29.737Z,5.70
2023-05-28T05:26:56.088Z,5.13
2023-05-28T05:29:22.622Z,5.80
2023-05-28T05:31:49.098Z,5.37
2023-05-28T05:34:15.843Z,5.20
2023-05-28T05:36:42.220Z,6.10
2023-05-28T05:39:09.475Z,5.13
2023-05-28T05:41:36.030Z,6.57
2023-05-28T05:44:02.391Z,6.03
2023-05-28T05:46:28.766Z,5.70
2023-05-28T05:48:55.135Z,6.07
2023-05-28T05:51:21.540Z,4.73
2023-05-28T05:53:47.867Z,5.63
2023-05-28T05:56:14.312Z,5.10
2023-05-28T05:58:40.794Z,5.43
2023-05-28T06:01:07.568Z,5.50
2023-05-28T06:03:34.004Z,5.33
2023-05-28T06:06:00.676Z,4.30
2023-05-28T06:08:27.344Z,4.77
2023-05-28T06:10:53.784Z,4.73
2023-05-28T06:13:20.276Z,4.83
2023-05-28T06:15:46.855Z,4.67
2023-05-28T06:18:13.228Z,4.67
2023-05-28T06:20:40.422Z,4.50
2023-05-28T06:23:07.163Z,4.53
2023-05-28T06:25:33.500Z,4.70
2023-05-28T06:27:59.857Z,4.37
2023-05-28T06:30:27.130Z,4.97
2023-05-28T06:32:53.576Z,4.10
2023-05-28T06:35:20.115Z,4.17
2023-05-28T06:37:46.577Z,4.30
2023-05-28T06:40:12.946Z,3.83
2023-05-28T06:42:39.402Z,3.90
2023-05-28T06:45:06.986Z,4.77
2023-05-28T06:47:33.458Z,3.70
2023-05-28T06:49:59.930Z,4.27
2023-05-28T06:52:27.929Z,4.80
2023-05-28T06:54:54.270Z,4.60
2023-05-28T06:57:21.943Z,4.60
2023-05-28T06:59:48.574Z,3.80
2023-05-28T07:02:15.999Z,3.30
2023-05-28T07:04:42.543Z,3.90
2023-05-28T07:07:08.971Z,4.17
2023-05-28T07:09:35.604Z,4.60
2023-05-28T07:12:02.547Z,4.50
2023-05-28T07:14:28.936Z,3.93
2023-05-28T07:16:55.363Z,4.00
2023-05-28T07:19:21.750Z,4.63
2023-05-28T07:21:48.190Z,4.50
2023-05-28T07:24:14.558Z,5.10
2023-05-28T07:26:41.103Z,4.53
2023-05-28T07:29:07.506Z,5.20
2023-05-28T07:31:34.126Z,5.17
2023-05-28T07:34:00.511Z,4.87
2023-05-28T07:36:26.898Z,5.00
2023-05-28T07:38:53.430Z,4.50
2023-05-28T07:41:19.742Z,4.67
2023-05-28T07:43:46.394Z,4.10
2023-05-28T07:46:12.793Z,4.47
2023-05-28T07:48:39.142Z,3.87
2023-05-28T07:51:05.762Z,4.00
2023-05-28T07:53:32.173Z,4.00
2023-05-28T07:55:58.496Z,3.77
2023-05-28T07:58:24.917Z,3.53
2023-05-28T08:00:51.411Z,3.87
2023-05-28T08:03:17.961Z,3.93
2023-05-28T08:05:44.576Z,3.43
2023-05-28T08:08:11.315Z,3.73
2023-05-28T08:10:37.772Z,3.50
2023-05-28T08:13:04.230Z,3.97
2023-05-28T08:15:30.553Z,3.67
2023-05-28T08:17:57.004Z,3.23
2023-05-28T08:20:23.560Z,3.90
2023-05-28T08:22:50.517Z,4.00
2023-05-28T08:25:16.979Z,3.70
2023-05-28T08:27:43.309Z,3.60
2023-05-28T08:30:10.280Z,4.00
2023-05-28T08:32:36.664Z,3.80
2023-05-28T08:35:03.531Z,3.73
2023-05-28T08:37:30.085Z,3.55
2023-05-28T08:39:56.428Z,4.03
2023-05-28T08:42:23.236Z,3.57
2023-05-28T08:44:49.679Z,3.47
2023-05-28T08:47:16.990Z,4.07
2023-05-28T08:49:51.698Z,3.80
2023-05-28T08:52:20.668Z,3.80
2023-05-28T08:54:50.512Z,3.67
2023-05-28T08:57:17.014Z,3.67
2023-05-28T08:59:45.430Z,3.97
2023-05-28T09:02:12.437Z,3.90
2023-05-28T09:04:39.412Z,4.47
2023-05-28T09:07:06.794Z,4.10
2023-05-28T09:09:33.635Z,3.33
2023-05-28T09:12:10.664Z,3.90
2023-05-28T09:14:41.878Z,3.63
2023-05-28T09:17:10.309Z,4.03
2023-05-28T09:19:37.630Z,3.50
2023-05-28T09:22:04.686Z,4.03
2023-05-28T09:24:34.660Z,3.95
2023-05-28T09:27:02.647Z,4.45
2023-05-28T09:29:29.043Z,3.60
2023-05-28T09:32:01.031Z,3.33
2023-05-28T09:34:32.270Z,3.47
2023-05-28T09:37:03.581Z,3.35
2023-05-28T09:39:30.922Z,3.33
2023-05-28T09:42:07.138Z,3.90
2023-05-28T09:44:34.680Z,3.50
2023-05-28T09:47:03.667Z,3.60
2023-05-28T09:49:30.958Z,4.07
2023-05-28T09:52:03.753Z,4.90
2023-05-28T09:54:33.079Z,3.35
2023-05-28T09:57:03.910Z,3.67
2023-05-28T09:59:32.474Z,3.53
2023-05-28T10:02:04.694Z,4.18
2023-05-28T10:04:36.694Z,3.88
2023-05-28T10:07:06.259Z,3.70
2023-05-28T10:09:34.214Z,3.40
2023-05-28T10:12:09.593Z,3.30
2023-05-28T10:14:37.814Z,3.58
2023-05-28T10:17:04.276Z,3.40
2023-05-28T10:19:31.398Z,3.78
2023-05-28T10:21:58.465Z,3.20
2023-05-28T10:24:25.390Z,3.00
2023-05-28T10:26:53.052Z,3.72
2023-05-28T10:29:19.470Z,3.83
2023-05-28T10:31:46.708Z,3.22
2023-05-28T10:34:19.280Z,3.45
2023-05-28T10:37:03.165Z,3.53
2023-05-28T10:39:46.975Z,3.90
2023-05-28T10:42:19.471Z,3.38
2023-05-28T10:45:01.203Z,3.53
2023-05-28T10:47:37.720Z,3.60
2023-05-28T10:52:40.283Z,3.20
2023-05-28T10:55:12.111Z,4.13
2023-05-28T10:57:44.388Z,3.53
2023-05-28T11:00:15.268Z,5.82
2023-05-28T11:02:45.566Z,3.92
2023-05-28T11:05:12.339Z,3.45
2023-05-28T11:07:43.161Z,3.40
2023-05-28T11:10:11.512Z,3.75
2023-05-28T11:12:40.034Z,3.97
2023-05-28T11:15:08.688Z,3.78
2023-05-28T11:17:46.380Z,3.85
2023-05-28T11:20:26.957Z,4.30
2023-05-28T11:22:54.721Z,3.53
2023-05-28T11:25:23.064Z,3.80
2023-05-28T11:27:51.561Z,4.10
2023-05-28T11:30:18.999Z,3.90
2023-05-28T11:32:47.313Z,3.92
2023-05-28T11:35:15.094Z,3.58
2023-05-28T11:37:44.086Z,3.97
2023-05-28T11:40:12.302Z,3.70
2023-05-28T11:42:41.535Z,3.22
2023-05-28T11:45:09.251Z,3.63
2023-05-28T11:47:37.405Z,3.60
2023-05-28T11:50:12.412Z,3.63
2023-05-28T11:52:38.875Z,3.90
2023-05-28T11:55:06.423Z,3.55
2023-05-28T11:57:40.790Z,3.60
2023-05-28T12:00:17.596Z,3.92
2023-05-28T12:02:49.167Z,4.07
2023-05-28T12:05:17.259Z,3.83
2023-05-28T12:07:50.650Z,3.80
2023-05-28T12:10:21.278Z,3.53
2023-05-28T12:12:52.666Z,3.63
2023-05-28T12:15:23.531Z,3.50
2023-05-28T12:17:55.910Z,3.40
2023-05-28T12:20:22.253Z,4.10
2023-05-28T12:23:05.201Z,3.80
2023-05-28T12:25:51.284Z,3.65
2023-05-28T12:28:19.622Z,3.90
2023-05-28T12:30:49.809Z,3.63
2023-05-28T12:33:16.256Z,3.72
2023-05-28T12:35:42.841Z,3.85
2023-05-28T12:38:09.755Z,3.70
2023-05-28T12:40:38.888Z,3.78
2023-05-28T12:43:05.516Z,3.75
2023-05-28T12:45:32.238Z,3.67
2023-05-28T12:47:58.621Z,3.53
2023-05-28T12:50:25.150Z,3.40
2023-05-28T12:52:51.590Z,3.78
2023-05-28T12:55:18.238Z,3.65
2023-05-28T12:57:45.074Z,3.58
2023-05-28T13:00:12.407Z,3.60
2023-05-28T13:02:39.463Z,3.53
2023-05-28T13:05:06.771Z,3.70
2023-05-28T13:07:33.220Z,3.65
2023-05-28T13:09:59.663Z,3.72
2023-05-28T13:12:26.920Z,4.10
2023-05-28T13:14:53.264Z,3.50
2023-05-28T13:17:21.364Z,3.70
2023-05-28T13:19:49.039Z,3.50
2023-05-28T13:22:16.053Z,3.53
2023-05-28T13:24:47.213Z,4.07
2023-05-28T13:27:14.648Z,3.22
2023-05-28T13:29:41.350Z,3.40
2023-05-28T13:32:08.089Z,3.40
2023-05-28T13:34:34.438Z,3.58
2023-05-28T13:37:01.002Z,3.60
2023-05-28T13:39:27.435Z,3.17
2023-05-28T13:41:54.027Z,3.80
2023-05-28T13:44:21.403Z,3.53
2023-05-28T13:46:49.560Z,3.63
2023-05-28T13:49:16.143Z,3.67
2023-05-28T13:51:44.559Z,3.65
2023-05-28T13:54:12.483Z,3.83
2023-05-28T13:56:39.897Z,3.40
2023-05-28T13:59:06.683Z,3.47
2023-05-28T14:01:33.217Z,2.92
2023-05-28T14:03:59.643Z,3.33
2023-05-28T14:06:26.444Z,3.10
2023-05-28T14:08:52.835Z,3.38
2023-05-28T14:11:19.232Z,3.53
2023-05-28T14:13:45.855Z,3.22
2023-05-28T14:16:12.271Z,3.45
2023-05-28T14:18:38.713Z,3.40
2023-05-28T14:21:05.455Z,3.22
2023-05-28T14:23:31.919Z,3.90
2023-05-28T14:25:58.294Z,3.40
2023-05-28T14:28:27.285Z,3.47
2023-05-28T14:30:53.856Z,3.80
2023-05-28T14:33:21.003Z,3.42
2023-05-28T14:35:47.499Z,3.15
2023-05-28T14:38:13.976Z,3.33
2023-05-28T14:40:40.501Z,3.33
2023-05-28T14:43:07.004Z,3.40
2023-05-28T14:45:33.365Z,3.70
2023-05-28T14:48:00.076Z,3.05
2023-05-28T14:50:26.598Z,3.38
2023-05-28T14:52:52.969Z,3.42
2023-05-28T14:55:21.192Z,3.35
2023-05-28T14:57:47.886Z,2.97
2023-05-28T15:00:14.384Z,2.65
2023-05-28T15:02:41.123Z,3.00
2023-05-28T15:05:08.283Z,3.60
2023-05-28T15:07:34.704Z,3.88
2023-05-28T15:10:01.476Z,2.88
2023-05-28T15:12:28.009Z,3.13
2023-05-28T15:14:54.411Z,3.30
2023-05-28T15:17:22.142Z,3.60
2023-05-28T15:19:49.557Z,3.78
2023-05-28T15:22:17.298Z,3.20
2023-05-28T15:24:44.292Z,3.10
2023-05-28T15:27:11.186Z,3.28
2023-05-28T15:29:39.160Z,2.83
2023-05-28T15:32:06.244Z,3.50
2023-05-28T15:34:32.889Z,3.10
2023-05-28T15:36:59.422Z,3.33
2023-05-28T15:39:26.225Z,2.90
2023-05-28T15:41:55.518Z,2.95
2023-05-28T15:44:22.235Z,3.45
2023-05-28T15:46:48.974Z,3.00
2023-05-28T15:49:15.387Z,3.13
2023-05-28T15:51:41.804Z,3.00
2023-05-28T15:54:08.319Z,3.03
2023-05-28T15:56:34.803Z,3.58
2023-05-28T15:59:01.317Z,3.90
2023-05-28T16:01:31.221Z,3.20
2023-05-28T16:03:57.998Z,5.00
2023-05-28T16:06:24.687Z,3.05
2023-05-28T16:08:51.109Z,5.10
2023-05-28T16:11:19.249Z,8.07
2023-05-28T16:13:47.052Z,4.20
2023-05-28T16:16:14.972Z,2.88
2023-05-28T16:18:43.256Z,3.10
2023-05-28T16:21:10.306Z,3.35
2023-05-28T16:23:37.093Z,2.83
2023-05-28T16:26:03.854Z,3.08
2023-05-28T16:28:33.383Z,3.42
2023-05-28T16:31:00.365Z,3.28
2023-05-28T16:33:26.916Z,3.13
2023-05-28T16:35:53.801Z,3.17
2023-05-28T16:38:21.596Z,3.72
2023-05-28T16:40:48.226Z,3.38
2023-05-28T16:43:14.854Z,2.95
2023-05-28T16:45:41.526Z,2.75
2023-05-28T16:48:08.406Z,2.50
2023-05-28T16:50:34.896Z,2.58
2023-05-28T16:53:01.295Z,3.08
2023-05-28T16:55:27.703Z,2.80
2023-05-28T16:57:54.153Z,2.65
2023-05-28T17:00:22.040Z,2.35
2023-05-28T17:02:51.386Z,2.20
2023-05-28T17:05:18.246Z,2.63
2023-05-28T17:07:45.091Z,2.60
2023-05-28T17:10:11.701Z,2.70
2023-05-28T17:12:39.411Z,2.67
2023-05-28T17:15:07.395Z,2.60
2023-05-28T17:17:34.846Z,2.00
2023-05-28T17:20:01.456Z,2.67
2023-05-28T17:22:28.517Z,2.25
2023-05-28T17:24:55.028Z,2.55
2023-05-28T17:27:21.366Z,2.47
2023-05-28T17:29:48.060Z,2.38
2023-05-28T17:32:14.786Z,2.70
2023-05-28T17:34:44.809Z,2.55
2023-05-28T17:37:12.122Z,2.60
2023-05-28T17:39:38.752Z,2.70
2023-05-28T17:42:06.310Z,2.50
2023-05-28T17:44:33.389Z,3.38
2023-05-28T17:46:59.956Z,2.45
2023-05-28T17:49:26.420Z,2.63
2023-05-28T17:51:53.867Z,2.72
2023-05-28T17:54:21.654Z,2.65
2023-05-28T17:56:48.249Z,2.95
2023-05-28T17:59:15.047Z,2.72
2023-05-28T18:01:43.110Z,2.53
2023-05-28T18:04:09.951Z,2.58
2023-05-28T18:06:36.546Z,2.75
2023-05-28T18:09:05.673Z,2.83
2023-05-28T18:11:32.593Z,2.78
2023-05-28T18:13:59.795Z,2.40
2023-05-28T18:16:26.558Z,2.90
2023-05-28T18:18:53.031Z,2.78
2023-05-28T18:21:19.870Z,2.83
2023-05-28T18:23:53.670Z,2.70
2023-05-28T18:26:20.136Z,2.80
2023-05-28T18:28:46.526Z,3.08
2023-05-28T18:31:12.992Z,2.95
2023-05-28T18:33:41.739Z,2.58
2023-05-28T18:36:08.131Z,2.95
2023-05-28T18:38:34.618Z,3.13
2023-05-28T18:41:01.345Z,2.90
2023-05-28T18:43:27.772Z,3.63
2023-05-28T18:45:54.331Z,3.40
2023-05-28T18:48:20.839Z,2.78
2023-05-28T18:50:47.225Z,2.83
2023-05-28T18:53:13.642Z,2.80
2023-05-28T18:55:40.001Z,3.03
2023-05-28T18:58:06.428Z,3.20
2023-05-28T19:00:34.340Z,2.95
2023-05-28T19:03:00.782Z,3.03
2023-05-28T19:05:27.286Z,3.13
2023-05-28T19:07:53.746Z,3.10
2023-05-28T19:10:21.166Z,3.17
2023-05-28T19:12:47.530Z,3.47
2023-05-28T19:15:14.177Z,2.90
2023-05-28T19:17:40.890Z,3.10
2023-05-28T19:20:08.553Z,3.03
2023-05-28T19:22:36.337Z,3.15
2023-05-28T19:25:04.614Z,2.92
2023-05-28T19:27:32.217Z,3.72
2023-05-28T19:29:58.626Z,3.00
2023-05-28T19:32:25.283Z,3.17
2023-05-28T19:34:52.631Z,2.63
2023-05-28T19:37:19.309Z,3.22
2023-05-28T19:39:45.826Z,3.30
2023-05-28T19:42:12.159Z,3.25
2023-05-28T19:44:38.564Z,2.90
2023-05-28T19:47:05.524Z,3.17
2023-05-28T19:49:32.052Z,3.08
2023-05-28T19:51:59.071Z,3.10
2023-05-28T19:54:26.105Z,3.42
2023-05-28T19:56:52.448Z,3.20
2023-05-28T19:59:19.537Z,3.40
2023-05-28T20:01:46.656Z,3.75
2023-05-28T20:04:13.095Z,3.13
2023-05-28T20:06:39.626Z,3.28
2023-05-28T20:09:06.103Z,3.42
2023-05-28T20:11:32.454Z,4.38
2023-05-28T20:13:58.946Z,4.65
2023-05-28T20:16:25.486Z,4.30
2023-05-28T20:18:55.503Z,3.80
2023-05-28T20:21:24.153Z,2.92
2023-05-28T20:23:50.893Z,2.95
2023-05-28T20:26:17.366Z,3.40
2023-05-28T20:28:43.836Z,3.67
2023-05-28T20:31:10.182Z,3.22
2023-05-28T20:33:36.534Z,3.30
2023-05-28T20:36:03.221Z,3.55
2023-05-28T20:38:30.073Z,3.45
2023-05-28T20:40:56.645Z,3.15
2023-05-28T20:43:23.511Z,3.45
2023-05-28T20:45:50.241Z,3.70
2023-05-28T20:48:16.592Z,3.25
2023-05-28T20:50:43.165Z,3.17
2023-05-28T20:53:09.548Z,3.22
2023-05-28T20:55:35.900Z,3.42
2023-05-28T20:58:03.770Z,3.60
2023-05-28T21:00:30.335Z,4.00
2023-05-28T21:02:57.788Z,3.57
2023-05-28T21:05:25.038Z,3.80
2023-05-28T21:07:52.047Z,3.45
2023-05-28T21:10:18.763Z,3.75
2023-05-28T21:12:45.288Z,3.43
2023-05-28T21:15:13.745Z,3.97
2023-05-28T21:17:40.736Z,3.60
2023-05-28T21:20:07.875Z,3.33
2023-05-28T21:22:34.803Z,3.67
2023-05-28T21:25:01.214Z,3.53
2023-05-28T21:27:27.633Z,3.70
2023-05-28T21:29:53.999Z,3.25
2023-05-28T21:32:20.403Z,3.30
2023-05-28T21:34:46.818Z,3.90
2023-05-28T21:37:13.273Z,3.47
2023-05-28T21:39:40.095Z,3.13
2023-05-28T21:42:07.001Z,3.90
2023-05-28T21:44:33.373Z,4.03
2023-05-28T21:46:59.805Z,4.03
2023-05-28T21:49:27.636Z,4.00
2023-05-28T21:51:56.568Z,4.57
2023-05-28T21:54:23.277Z,4.27
2023-05-28T21:56:49.718Z,3.90
2023-05-28T21:59:16.157Z,3.93
2023-05-28T22:01:42.525Z,4.10
2023-05-28T22:04:09.182Z,4.10
2023-05-28T22:06:35.723Z,4.10
2023-05-28T22:09:03.838Z,4.27
2023-05-28T22:11:30.529Z,4.47
2023-05-28T22:13:56.921Z,4.47
2023-05-28T22:16:23.350Z,4.20
2023-05-28T22:18:51.878Z,4.13
2023-05-28T22:21:18.905Z,3.90
2023-05-28T22:23:45.496Z,4.07
2023-05-28T22:26:12.015Z,3.70
2023-05-28T22:28:47.477Z,4.30
2023-05-28T22:31:23.751Z,3.80
2023-05-28T22:33:50.408Z,4.00
2023-05-28T22:36:16.848Z,3.07
2023-05-28T22:38:43.275Z,3.20
2023-05-28T22:41:09.633Z,3.50
2023-05-28T22:43:36.039Z,5.13
2023-05-28T22:46:02.630Z,3.93
2023-05-28T22:48:29.528Z,3.50
2023-05-28T22:50:56.394Z,3.97
2023-05-28T22:53:23.098Z,3.83
2023-05-28T22:55:49.465Z,3.20
2023-05-28T22:58:15.872Z,3.63
2023-05-28T23:00:42.422Z,3.80
2023-05-28T23:03:09.437Z,3.73
2023-05-28T23:05:35.870Z,3.70
2023-05-28T23:08:02.511Z,3.73
2023-05-28T23:10:28.966Z,3.60
2023-05-28T23:12:55.384Z,4.47
2023-05-28T23:15:21.777Z,4.37
2023-05-28T23:17:51.631Z,4.13
2023-05-28T23:20:18.604Z,3.43
2023-05-28T23:22:45.004Z,3.50
2023-05-28T23:25:12.793Z,3.27
2023-05-28T23:27:39.404Z,3.40
2023-05-28T23:30:06.442Z,3.37
2023-05-28T23:32:32.955Z,3.20
2023-05-28T23:34:59.301Z,3.10
2023-05-28T23:37:25.818Z,3.63
2023-05-28T23:39:52.159Z,4.03
2023-05-28T23:42:18.497Z,4.10
2023-05-28T23:44:45.393Z,3.50
2023-05-28T23:47:11.837Z,3.67
2023-05-28T23:49:38.167Z,3.80
2023-05-28T23:52:05.098Z,3.60
2023-05-28T23:54:31.457Z,3.77
2023-05-28T23:56:57.809Z,3.50
2023-05-28T23:59:24.223Z,3.50
